sensor_id;sensor_type;location;lat;lon;timestamp;P1;durP1;ratioP1;P2;durP2;ratioP2
77876;SDS011;67251;50.844;7.978;2023-05-10T00:00:57;0.63;;;0.30;;
77876;SDS011;67251;50.844;7.978;2023-05-10T00:03:22;2.40;;;0.40;;
77876;SDS011;67251;50.844;7.978;2023-05-10T00:05:49;1.83;;;0.45;;
77876;SDS011;67251;50.844;7.978;2023-05-10T00:08:15;2.90;;;0.60;;
77876;SDS011;67251;50.844;7.978;2023-05-10T00:10:40;1.17;;;0.40;;
77876;SDS011;67251;50.844;7.978;2023-05-10T00:13:06;1.75;;;0.45;;
77876;SDS011;67251;50.844;7.978;2023-05-10T00:15:31;1.33;;;0.50;;
77876;SDS011;67251;50.844;7.978;2023-05-10T00:17:56;1.42;;;0.50;;
77876;SDS011;67251;50.844;7.978;2023-05-10T00:20:22;0.65;;;0.40;;
77876;SDS011;67251;50.844;7.978;2023-05-10T00:22:47;1.60;;;0.50;;
77876;SDS011;67251;50.844;7.978;2023-05-10T00:25:13;3.55;;;0.75;;
77876;SDS011;67251;50.844;7.978;2023-05-10T00:27:38;3.35;;;0.73;;
77876;SDS011;67251;50.844;7.978;2023-05-10T00:30:04;2.08;;;0.73;;
77876;SDS011;67251;50.844;7.978;2023-05-10T00:32:31;2.10;;;0.70;;
77876;SDS011;67251;50.844;7.978;2023-05-10T00:34:56;2.35;;;0.80;;
77876;SDS011;67251;50.844;7.978;2023-05-10T00:37:22;2.55;;;0.80;;
77876;SDS011;67251;50.844;7.978;2023-05-10T00:39:47;2.40;;;0.80;;
77876;SDS011;67251;50.844;7.978;2023-05-10T00:42:12;2.95;;;0.88;;
77876;SDS011;67251;50.844;7.978;2023-05-10T00:44:38;2.35;;;0.85;;
77876;SDS011;67251;50.844;7.978;2023-05-10T00:47:03;2.28;;;0.90;;
77876;SDS011;67251;50.844;7.978;2023-05-10T00:49:29;2.92;;;0.90;;
77876;SDS011;67251;50.844;7.978;2023-05-10T00:51:54;3.33;;;1.23;;
77876;SDS011;67251;50.844;7.978;2023-05-10T00:54:20;2.60;;;0.90;;
77876;SDS011;67251;50.844;7.978;2023-05-10T00:56:46;3.05;;;1.02;;
77876;SDS011;67251;50.844;7.978;2023-05-10T00:59:14;3.22;;;1.02;;
77876;SDS011;67251;50.844;7.978;2023-05-10T01:01:42;4.70;;;1.02;;
77876;SDS011;67251;50.844;7.978;2023-05-10T01:04:09;3.03;;;1.00;;
77876;SDS011;67251;50.844;7.978;2023-05-10T01:06:37;2.25;;;0.80;;
77876;SDS011;67251;50.844;7.978;2023-05-10T01:09:03;3.22;;;1.15;;
77876;SDS011;67251;50.844;7.978;2023-05-10T01:11:28;3.35;;;1.13;;
77876;SDS011;67251;50.844;7.978;2023-05-10T01:13:56;2.90;;;0.90;;
77876;SDS011;67251;50.844;7.978;2023-05-10T01:16:23;2.25;;;0.70;;
77876;SDS011;67251;50.844;7.978;2023-05-10T01:18:50;1.63;;;0.65;;
77876;SDS011;67251;50.844;7.978;2023-05-10T01:29:49;2.67;;;0.73;;
77876;SDS011;67251;50.844;7.978;2023-05-10T01:37:51;1.90;;;0.75;;
77876;SDS011;67251;50.844;7.978;2023-05-10T01:43:28;1.75;;;0.60;;
77876;SDS011;67251;50.844;7.978;2023-05-10T01:46:05;2.53;;;0.70;;
77876;SDS011;67251;50.844;7.978;2023-05-10T01:54:06;2.45;;;0.73;;
77876;SDS011;67251;50.844;7.978;2023-05-10T01:56:34;3.10;;;0.93;;
77876;SDS011;67251;50.844;7.978;2023-05-10T01:59:00;2.88;;;0.90;;
77876;SDS011;67251;50.844;7.978;2023-05-10T02:01:33;3.20;;;0.90;;
77876;SDS011;67251;50.844;7.978;2023-05-10T02:04:03;2.65;;;0.90;;
77876;SDS011;67251;50.844;7.978;2023-05-10T02:06:31;2.53;;;0.80;;
77876;SDS011;67251;50.844;7.978;2023-05-10T02:08:57;3.15;;;1.00;;
77876;SDS011;67251;50.844;7.978;2023-05-10T02:11:25;3.58;;;1.10;;
77876;SDS011;67251;50.844;7.978;2023-05-10T02:13:53;3.10;;;1.10;;
77876;SDS011;67251;50.844;7.978;2023-05-10T02:16:20;3.40;;;1.40;;
77876;SDS011;67251;50.844;7.978;2023-05-10T02:18:51;3.50;;;1.35;;
77876;SDS011;67251;50.844;7.978;2023-05-10T02:21:19;2.78;;;1.10;;
77876;SDS011;67251;50.844;7.978;2023-05-10T02:23:46;3.05;;;1.13;;
77876;SDS011;67251;50.844;7.978;2023-05-10T02:28:41;3.30;;;0.98;;
77876;SDS011;67251;50.844;7.978;2023-05-10T02:31:08;3.55;;;1.20;;
77876;SDS011;67251;50.844;7.978;2023-05-10T02:33:35;3.30;;;1.15;;
77876;SDS011;67251;50.844;7.978;2023-05-10T02:36:04;4.35;;;1.10;;
77876;SDS011;67251;50.844;7.978;2023-05-10T02:38:30;3.50;;;1.25;;
77876;SDS011;67251;50.844;7.978;2023-05-10T02:40:59;4.07;;;1.48;;
77876;SDS011;67251;50.844;7.978;2023-05-10T02:43:26;4.55;;;1.52;;
77876;SDS011;67251;50.844;7.978;2023-05-10T02:45:55;4.47;;;1.38;;
77876;SDS011;67251;50.844;7.978;2023-05-10T02:48:20;4.00;;;1.60;;
77876;SDS011;67251;50.844;7.978;2023-05-10T02:50:46;4.18;;;1.40;;
77876;SDS011;67251;50.844;7.978;2023-05-10T02:53:18;3.75;;;1.42;;
77876;SDS011;67251;50.844;7.978;2023-05-10T02:55:49;3.97;;;1.75;;
77876;SDS011;67251;50.844;7.978;2023-05-10T02:58:17;5.05;;;1.75;;
77876;SDS011;67251;50.844;7.978;2023-05-10T03:00:44;3.80;;;1.42;;
77876;SDS011;67251;50.844;7.978;2023-05-10T03:03:11;4.65;;;1.88;;
77876;SDS011;67251;50.844;7.978;2023-05-10T03:05:36;4.25;;;1.52;;
77876;SDS011;67251;50.844;7.978;2023-05-10T03:08:01;4.43;;;1.80;;
77876;SDS011;67251;50.844;7.978;2023-05-10T03:10:29;4.57;;;2.00;;
77876;SDS011;67251;50.844;7.978;2023-05-10T03:16:12;5.88;;;2.65;;
77876;SDS011;67251;50.844;7.978;2023-05-10T03:18:48;6.63;;;2.60;;
77876;SDS011;67251;50.844;7.978;2023-05-10T03:21:19;7.47;;;2.70;;
77876;SDS011;67251;50.844;7.978;2023-05-10T03:23:50;6.90;;;2.67;;
77876;SDS011;67251;50.844;7.978;2023-05-10T03:26:17;7.93;;;3.00;;
77876;SDS011;67251;50.844;7.978;2023-05-10T03:28:51;7.15;;;3.03;;
77876;SDS011;67251;50.844;7.978;2023-05-10T03:31:18;6.90;;;2.97;;
77876;SDS011;67251;50.844;7.978;2023-05-10T03:33:47;7.40;;;3.05;;
77876;SDS011;67251;50.844;7.978;2023-05-10T03:36:13;7.28;;;3.05;;
77876;SDS011;67251;50.844;7.978;2023-05-10T03:38:38;7.93;;;3.38;;
77876;SDS011;67251;50.844;7.978;2023-05-10T03:41:04;7.45;;;2.80;;
77876;SDS011;67251;50.844;7.978;2023-05-10T03:43:29;6.43;;;3.10;;
77876;SDS011;67251;50.844;7.978;2023-05-10T03:45:54;8.27;;;3.30;;
77876;SDS011;67251;50.844;7.978;2023-05-10T03:48:20;7.47;;;3.35;;
77876;SDS011;67251;50.844;7.978;2023-05-10T03:50:45;7.18;;;3.03;;
77876;SDS011;67251;50.844;7.978;2023-05-10T03:53:10;6.95;;;3.00;;
77876;SDS011;67251;50.844;7.978;2023-05-10T03:55:37;7.22;;;2.58;;
77876;SDS011;67251;50.844;7.978;2023-05-10T03:58:03;6.15;;;2.60;;
77876;SDS011;67251;50.844;7.978;2023-05-10T04:00:28;6.38;;;2.75;;
77876;SDS011;67251;50.844;7.978;2023-05-10T04:02:53;6.18;;;2.58;;
77876;SDS011;67251;50.844;7.978;2023-05-10T04:05:19;4.60;;;1.70;;
77876;SDS011;67251;50.844;7.978;2023-05-10T04:07:44;4.93;;;1.95;;
77876;SDS011;67251;50.844;7.978;2023-05-10T04:10:10;4.72;;;1.65;;
77876;SDS011;67251;50.844;7.978;2023-05-10T04:12:36;4.00;;;1.60;;
77876;SDS011;67251;50.844;7.978;2023-05-10T04:15:01;4.03;;;1.63;;
77876;SDS011;67251;50.844;7.978;2023-05-10T04:17:27;4.65;;;1.80;;
77876;SDS011;67251;50.844;7.978;2023-05-10T04:19:52;3.70;;;1.70;;
77876;SDS011;67251;50.844;7.978;2023-05-10T04:22:19;5.00;;;2.10;;
77876;SDS011;67251;50.844;7.978;2023-05-10T04:24:45;4.95;;;1.80;;
77876;SDS011;67251;50.844;7.978;2023-05-10T04:27:10;5.35;;;1.90;;
77876;SDS011;67251;50.844;7.978;2023-05-10T04:29:36;4.70;;;1.88;;
77876;SDS011;67251;50.844;7.978;2023-05-10T04:32:01;4.43;;;1.98;;
77876;SDS011;67251;50.844;7.978;2023-05-10T04:34:28;5.63;;;2.40;;
77876;SDS011;67251;50.844;7.978;2023-05-10T04:36:54;5.72;;;2.30;;
77876;SDS011;67251;50.844;7.978;2023-05-10T04:39:19;6.53;;;2.80;;
77876;SDS011;67251;50.844;7.978;2023-05-10T04:41:45;6.22;;;2.25;;
77876;SDS011;67251;50.844;7.978;2023-05-10T04:44:10;5.03;;;2.30;;
77876;SDS011;67251;50.844;7.978;2023-05-10T04:46:35;6.13;;;2.45;;
77876;SDS011;67251;50.844;7.978;2023-05-10T04:49:01;6.38;;;2.40;;
77876;SDS011;67251;50.844;7.978;2023-05-10T04:51:26;5.05;;;2.05;;
77876;SDS011;67251;50.844;7.978;2023-05-10T04:53:52;6.03;;;2.20;;
77876;SDS011;67251;50.844;7.978;2023-05-10T04:56:17;5.72;;;2.40;;
77876;SDS011;67251;50.844;7.978;2023-05-10T04:58:42;6.55;;;2.40;;
77876;SDS011;67251;50.844;7.978;2023-05-10T05:01:08;6.03;;;1.92;;
77876;SDS011;67251;50.844;7.978;2023-05-10T05:03:34;5.72;;;2.10;;
77876;SDS011;67251;50.844;7.978;2023-05-10T05:05:59;4.90;;;1.88;;
77876;SDS011;67251;50.844;7.978;2023-05-10T05:08:25;5.50;;;1.77;;
77876;SDS011;67251;50.844;7.978;2023-05-10T05:10:50;4.00;;;1.63;;
77876;SDS011;67251;50.844;7.978;2023-05-10T05:13:16;3.85;;;1.52;;
77876;SDS011;67251;50.844;7.978;2023-05-10T05:15:41;3.80;;;1.30;;
77876;SDS011;67251;50.844;7.978;2023-05-10T05:18:07;3.75;;;1.52;;
77876;SDS011;67251;50.844;7.978;2023-05-10T05:20:32;4.32;;;1.58;;
77876;SDS011;67251;50.844;7.978;2023-05-10T05:23:01;3.60;;;1.40;;
77876;SDS011;67251;50.844;7.978;2023-05-10T05:25:27;4.22;;;1.50;;
77876;SDS011;67251;50.844;7.978;2023-05-10T05:27:52;4.20;;;1.40;;
77876;SDS011;67251;50.844;7.978;2023-05-10T05:30:18;3.58;;;1.60;;
77876;SDS011;67251;50.844;7.978;2023-05-10T05:32:44;4.88;;;1.65;;
77876;SDS011;67251;50.844;7.978;2023-05-10T05:35:09;5.03;;;1.65;;
77876;SDS011;67251;50.844;7.978;2023-05-10T05:37:35;3.75;;;1.35;;
77876;SDS011;67251;50.844;7.978;2023-05-10T05:40:02;4.20;;;1.65;;
77876;SDS011;67251;50.844;7.978;2023-05-10T05:42:28;3.83;;;1.60;;
77876;SDS011;67251;50.844;7.978;2023-05-10T05:44:53;4.55;;;1.80;;
77876;SDS011;67251;50.844;7.978;2023-05-10T05:47:18;4.28;;;2.05;;
77876;SDS011;67251;50.844;7.978;2023-05-10T05:49:44;3.83;;;1.45;;
77876;SDS011;67251;50.844;7.978;2023-05-10T05:52:12;4.32;;;1.75;;
77876;SDS011;67251;50.844;7.978;2023-05-10T05:54:37;4.13;;;1.70;;
77876;SDS011;67251;50.844;7.978;2023-05-10T05:57:03;4.15;;;1.80;;
77876;SDS011;67251;50.844;7.978;2023-05-10T05:59:28;4.95;;;1.75;;
77876;SDS011;67251;50.844;7.978;2023-05-10T06:01:54;4.28;;;1.90;;
77876;SDS011;67251;50.844;7.978;2023-05-10T06:04:19;4.10;;;1.65;;
77876;SDS011;67251;50.844;7.978;2023-05-10T06:06:45;4.65;;;1.95;;
77876;SDS011;67251;50.844;7.978;2023-05-10T06:09:10;4.88;;;1.63;;
77876;SDS011;67251;50.844;7.978;2023-05-10T06:11:37;4.43;;;1.80;;
77876;SDS011;67251;50.844;7.978;2023-05-10T06:14:03;5.07;;;1.67;;
77876;SDS011;67251;50.844;7.978;2023-05-10T06:16:29;4.00;;;1.65;;
77876;SDS011;67251;50.844;7.978;2023-05-10T06:18:55;4.50;;;1.80;;
77876;SDS011;67251;50.844;7.978;2023-05-10T06:21:21;4.95;;;2.22;;
77876;SDS011;67251;50.844;7.978;2023-05-10T06:23:47;5.05;;;2.10;;
77876;SDS011;67251;50.844;7.978;2023-05-10T06:26:12;5.50;;;1.90;;
77876;SDS011;67251;50.844;7.978;2023-05-10T06:28:38;4.85;;;1.80;;
77876;SDS011;67251;50.844;7.978;2023-05-10T06:31:04;8.10;;;2.10;;
77876;SDS011;67251;50.844;7.978;2023-05-10T06:33:30;4.60;;;1.90;;
77876;SDS011;67251;50.844;7.978;2023-05-10T06:35:55;5.05;;;1.75;;
77876;SDS011;67251;50.844;7.978;2023-05-10T06:38:21;4.93;;;1.90;;
77876;SDS011;67251;50.844;7.978;2023-05-10T06:40:46;5.07;;;1.83;;
77876;SDS011;67251;50.844;7.978;2023-05-10T06:43:11;5.10;;;1.77;;
77876;SDS011;67251;50.844;7.978;2023-05-10T06:45:37;5.07;;;1.70;;
77876;SDS011;67251;50.844;7.978;2023-05-10T06:48:02;7.63;;;1.60;;
77876;SDS011;67251;50.844;7.978;2023-05-10T06:50:28;5.57;;;1.88;;
77876;SDS011;67251;50.844;7.978;2023-05-10T06:52:53;4.82;;;1.80;;
77876;SDS011;67251;50.844;7.978;2023-05-10T06:55:19;4.00;;;1.55;;
77876;SDS011;67251;50.844;7.978;2023-05-10T06:57:44;5.72;;;1.90;;
77876;SDS011;67251;50.844;7.978;2023-05-10T07:00:10;5.55;;;1.88;;
77876;SDS011;67251;50.844;7.978;2023-05-10T07:02:36;5.15;;;2.03;;
77876;SDS011;67251;50.844;7.978;2023-05-10T07:05:01;6.80;;;2.42;;
77876;SDS011;67251;50.844;7.978;2023-05-10T07:07:27;6.07;;;2.13;;
77876;SDS011;67251;50.844;7.978;2023-05-10T07:09:52;7.15;;;2.40;;
77876;SDS011;67251;50.844;7.978;2023-05-10T07:12:17;7.13;;;2.40;;
77876;SDS011;67251;50.844;7.978;2023-05-10T07:14:43;4.93;;;2.25;;
77876;SDS011;67251;50.844;7.978;2023-05-10T07:17:08;5.28;;;1.90;;
77876;SDS011;67251;50.844;7.978;2023-05-10T07:19:34;5.13;;;1.73;;
77876;SDS011;67251;50.844;7.978;2023-05-10T07:22:00;4.60;;;1.80;;
77876;SDS011;67251;50.844;7.978;2023-05-10T07:24:26;5.80;;;1.77;;
77876;SDS011;67251;50.844;7.978;2023-05-10T07:26:52;5.80;;;1.80;;
77876;SDS011;67251;50.844;7.978;2023-05-10T07:29:17;4.82;;;2.25;;
77876;SDS011;67251;50.844;7.978;2023-05-10T07:31:42;4.65;;;2.05;;
77876;SDS011;67251;50.844;7.978;2023-05-10T07:34:08;5.55;;;2.03;;
77876;SDS011;67251;50.844;7.978;2023-05-10T07:36:34;5.90;;;2.85;;
77876;SDS011;67251;50.844;7.978;2023-05-10T07:38:59;6.10;;;2.63;;
77876;SDS011;67251;50.844;7.978;2023-05-10T07:41:25;6.25;;;2.55;;
77876;SDS011;67251;50.844;7.978;2023-05-10T07:43:50;9.38;;;4.28;;
77876;SDS011;67251;50.844;7.978;2023-05-10T07:46:16;12.30;;;5.03;;
77876;SDS011;67251;50.844;7.978;2023-05-10T07:48:41;12.43;;;5.88;;
77876;SDS011;67251;50.844;7.978;2023-05-10T07:51:07;13.20;;;5.78;;
77876;SDS011;67251;50.844;7.978;2023-05-10T07:53:34;15.27;;;6.03;;
77876;SDS011;67251;50.844;7.978;2023-05-10T07:56:19;16.20;;;6.57;;
77876;SDS011;67251;50.844;7.978;2023-05-10T07:58:55;12.85;;;6.30;;
77876;SDS011;67251;50.844;7.978;2023-05-10T08:01:21;12.70;;;6.90;;
77876;SDS011;67251;50.844;7.978;2023-05-10T08:03:47;15.20;;;7.20;;
77876;SDS011;67251;50.844;7.978;2023-05-10T08:06:14;16.85;;;7.20;;
77876;SDS011;67251;50.844;7.978;2023-05-10T08:08:42;16.25;;;6.18;;
77876;SDS011;67251;50.844;7.978;2023-05-10T08:11:08;13.57;;;6.22;;
77876;SDS011;67251;50.844;7.978;2023-05-10T08:13:33;15.43;;;6.30;;
77876;SDS011;67251;50.844;7.978;2023-05-10T08:15:59;12.88;;;5.93;;
77876;SDS011;67251;50.844;7.978;2023-05-10T08:18:24;12.55;;;5.32;;
77876;SDS011;67251;50.844;7.978;2023-05-10T08:20:49;11.20;;;5.30;;
77876;SDS011;67251;50.844;7.978;2023-05-10T08:23:15;10.25;;;4.72;;
77876;SDS011;67251;50.844;7.978;2023-05-10T08:25:40;11.48;;;5.45;;
77876;SDS011;67251;50.844;7.978;2023-05-10T08:28:06;9.65;;;4.82;;
77876;SDS011;67251;50.844;7.978;2023-05-10T08:30:31;10.20;;;4.78;;
77876;SDS011;67251;50.844;7.978;2023-05-10T08:32:56;9.90;;;4.80;;
77876;SDS011;67251;50.844;7.978;2023-05-10T08:35:22;11.80;;;5.38;;
77876;SDS011;67251;50.844;7.978;2023-05-10T08:37:47;13.15;;;5.88;;
77876;SDS011;67251;50.844;7.978;2023-05-10T08:40:12;14.38;;;6.03;;
77876;SDS011;67251;50.844;7.978;2023-05-10T08:42:39;11.95;;;5.85;;
77876;SDS011;67251;50.844;7.978;2023-05-10T08:45:08;12.95;;;5.88;;
77876;SDS011;67251;50.844;7.978;2023-05-10T08:47:36;13.52;;;5.70;;
77876;SDS011;67251;50.844;7.978;2023-05-10T08:50:03;13.55;;;5.53;;
77876;SDS011;67251;50.844;7.978;2023-05-10T08:52:28;11.95;;;5.82;;
77876;SDS011;67251;50.844;7.978;2023-05-10T08:54:56;9.20;;;4.70;;
77876;SDS011;67251;50.844;7.978;2023-05-10T08:57:22;12.10;;;5.70;;
77876;SDS011;67251;50.844;7.978;2023-05-10T08:59:47;11.77;;;5.20;;
77876;SDS011;67251;50.844;7.978;2023-05-10T09:02:13;12.10;;;5.72;;
77876;SDS011;67251;50.844;7.978;2023-05-10T09:04:39;11.32;;;5.97;;
77876;SDS011;67251;50.844;7.978;2023-05-10T09:07:06;13.18;;;5.80;;
77876;SDS011;67251;50.844;7.978;2023-05-10T09:09:32;11.57;;;5.60;;
77876;SDS011;67251;50.844;7.978;2023-05-10T09:11:58;10.68;;;4.85;;
77876;SDS011;67251;50.844;7.978;2023-05-10T09:14:24;12.15;;;5.28;;
77876;SDS011;67251;50.844;7.978;2023-05-10T09:16:50;11.25;;;5.45;;
77876;SDS011;67251;50.844;7.978;2023-05-10T09:19:16;10.73;;;5.20;;
77876;SDS011;67251;50.844;7.978;2023-05-10T09:21:41;10.63;;;4.88;;
77876;SDS011;67251;50.844;7.978;2023-05-10T09:24:07;10.43;;;5.15;;
77876;SDS011;67251;50.844;7.978;2023-05-10T09:26:33;11.13;;;5.30;;
77876;SDS011;67251;50.844;7.978;2023-05-10T09:29:01;10.68;;;5.72;;
77876;SDS011;67251;50.844;7.978;2023-05-10T09:32:10;9.93;;;5.22;;
77876;SDS011;67251;50.844;7.978;2023-05-10T09:34:19;8.85;;;4.40;;
77876;SDS011;67251;50.844;7.978;2023-05-10T09:39:36;8.63;;;4.55;;
77876;SDS011;67251;50.844;7.978;2023-05-10T09:42:04;9.93;;;4.57;;
77876;SDS011;67251;50.844;7.978;2023-05-10T09:44:33;9.52;;;4.50;;
77876;SDS011;67251;50.844;7.978;2023-05-10T09:47:00;8.63;;;4.40;;
77876;SDS011;67251;50.844;7.978;2023-05-10T09:51:59;8.70;;;4.00;;
77876;SDS011;67251;50.844;7.978;2023-05-10T09:54:28;8.65;;;3.78;;
77876;SDS011;67251;50.844;7.978;2023-05-10T09:56:54;11.18;;;4.30;;
77876;SDS011;67251;50.844;7.978;2023-05-10T09:59:20;8.50;;;3.63;;
77876;SDS011;67251;50.844;7.978;2023-05-10T10:01:52;7.35;;;3.50;;
77876;SDS011;67251;50.844;7.978;2023-05-10T10:04:19;7.45;;;3.38;;
77876;SDS011;67251;50.844;7.978;2023-05-10T10:06:45;6.95;;;3.33;;
77876;SDS011;67251;50.844;7.978;2023-05-10T10:09:10;9.35;;;3.83;;
77876;SDS011;67251;50.844;7.978;2023-05-10T10:11:36;8.57;;;4.05;;
77876;SDS011;67251;50.844;7.978;2023-05-10T10:14:02;6.82;;;3.05;;
77876;SDS011;67251;50.844;7.978;2023-05-10T10:16:29;7.72;;;3.20;;
77876;SDS011;67251;50.844;7.978;2023-05-10T10:18:55;6.63;;;3.10;;
77876;SDS011;67251;50.844;7.978;2023-05-10T10:21:20;6.75;;;2.53;;
77876;SDS011;67251;50.844;7.978;2023-05-10T10:23:46;6.20;;;2.53;;
77876;SDS011;67251;50.844;7.978;2023-05-10T10:26:12;6.30;;;2.60;;
77876;SDS011;67251;50.844;7.978;2023-05-10T10:28:58;7.20;;;2.70;;
77876;SDS011;67251;50.844;7.978;2023-05-10T10:31:45;6.20;;;2.45;;
77876;SDS011;67251;50.844;7.978;2023-05-10T10:34:22;5.70;;;2.40;;
77876;SDS011;67251;50.844;7.978;2023-05-10T10:36:52;5.43;;;2.50;;
77876;SDS011;67251;50.844;7.978;2023-05-10T10:39:18;5.53;;;2.50;;
77876;SDS011;67251;50.844;7.978;2023-05-10T10:41:49;7.40;;;2.80;;
77876;SDS011;67251;50.844;7.978;2023-05-10T10:54:52;4.13;;;1.50;;
77876;SDS011;67251;50.844;7.978;2023-05-10T10:57:24;3.55;;;1.42;;
77876;SDS011;67251;50.844;7.978;2023-05-10T10:59:51;4.00;;;1.42;;
77876;SDS011;67251;50.844;7.978;2023-05-10T11:02:46;5.03;;;1.55;;
77876;SDS011;67251;50.844;7.978;2023-05-10T11:05:22;3.80;;;1.40;;
77876;SDS011;67251;50.844;7.978;2023-05-10T11:07:57;4.45;;;1.52;;
77876;SDS011;67251;50.844;7.978;2023-05-10T11:10:24;4.47;;;1.50;;
77876;SDS011;67251;50.844;7.978;2023-05-10T11:12:51;4.80;;;1.80;;
77876;SDS011;67251;50.844;7.978;2023-05-10T11:15:17;3.42;;;1.20;;
77876;SDS011;67251;50.844;7.978;2023-05-10T11:17:42;3.50;;;1.30;;
77876;SDS011;67251;50.844;7.978;2023-05-10T11:20:08;4.22;;;1.42;;
77876;SDS011;67251;50.844;7.978;2023-05-10T11:22:50;5.35;;;1.60;;
77876;SDS011;67251;50.844;7.978;2023-05-10T11:25:17;4.72;;;1.40;;
77876;SDS011;67251;50.844;7.978;2023-05-10T11:27:43;3.80;;;1.30;;
77876;SDS011;67251;50.844;7.978;2023-05-10T11:30:09;3.95;;;1.30;;
77876;SDS011;67251;50.844;7.978;2023-05-10T11:32:39;4.10;;;1.27;;
77876;SDS011;67251;50.844;7.978;2023-05-10T11:35:11;4.25;;;1.20;;
77876;SDS011;67251;50.844;7.978;2023-05-10T11:37:37;3.40;;;1.30;;
77876;SDS011;67251;50.844;7.978;2023-05-10T11:40:07;5.05;;;1.42;;
77876;SDS011;67251;50.844;7.978;2023-05-10T11:42:35;3.88;;;1.23;;
77876;SDS011;67251;50.844;7.978;2023-05-10T11:45:02;2.97;;;1.10;;
77876;SDS011;67251;50.844;7.978;2023-05-10T11:47:27;3.45;;;1.10;;
77876;SDS011;67251;50.844;7.978;2023-05-10T11:49:53;3.63;;;1.20;;
77876;SDS011;67251;50.844;7.978;2023-05-10T11:52:18;3.05;;;1.20;;
77876;SDS011;67251;50.844;7.978;2023-05-10T11:54:51;4.72;;;2.25;;
77876;SDS011;67251;50.844;7.978;2023-05-10T11:57:18;3.85;;;2.00;;
77876;SDS011;67251;50.844;7.978;2023-05-10T11:59:45;4.13;;;1.80;;
77876;SDS011;67251;50.844;7.978;2023-05-10T12:02:11;4.43;;;1.30;;
77876;SDS011;67251;50.844;7.978;2023-05-10T12:04:37;3.20;;;1.17;;
77876;SDS011;67251;50.844;7.978;2023-05-10T12:07:02;3.58;;;1.20;;
77876;SDS011;67251;50.844;7.978;2023-05-10T12:09:28;3.10;;;1.00;;
77876;SDS011;67251;50.844;7.978;2023-05-10T12:11:55;3.30;;;1.05;;
77876;SDS011;67251;50.844;7.978;2023-05-10T12:14:26;3.67;;;1.10;;
77876;SDS011;67251;50.844;7.978;2023-05-10T12:16:51;3.00;;;0.93;;
77876;SDS011;67251;50.844;7.978;2023-05-10T12:19:20;3.83;;;1.33;;
77876;SDS011;67251;50.844;7.978;2023-05-10T12:21:46;3.28;;;0.93;;
77876;SDS011;67251;50.844;7.978;2023-05-10T12:24:12;3.47;;;1.20;;
77876;SDS011;67251;50.844;7.978;2023-05-10T12:26:37;4.35;;;1.20;;
77876;SDS011;67251;50.844;7.978;2023-05-10T12:29:16;4.05;;;1.60;;
77876;SDS011;67251;50.844;7.978;2023-05-10T12:31:50;3.35;;;1.30;;
77876;SDS011;67251;50.844;7.978;2023-05-10T12:34:22;3.80;;;1.20;;
77876;SDS011;67251;50.844;7.978;2023-05-10T12:36:57;3.42;;;1.42;;
77876;SDS011;67251;50.844;7.978;2023-05-10T12:39:23;3.10;;;1.08;;
77876;SDS011;67251;50.844;7.978;2023-05-10T12:41:50;3.15;;;1.30;;
77876;SDS011;67251;50.844;7.978;2023-05-10T12:44:15;3.90;;;1.20;;
77876;SDS011;67251;50.844;7.978;2023-05-10T12:46:42;3.80;;;1.30;;
77876;SDS011;67251;50.844;7.978;2023-05-10T12:49:07;3.97;;;1.35;;
77876;SDS011;67251;50.844;7.978;2023-05-10T12:51:32;3.83;;;1.40;;
77876;SDS011;67251;50.844;7.978;2023-05-10T12:53:58;3.85;;;1.50;;
77876;SDS011;67251;50.844;7.978;2023-05-10T12:56:23;3.22;;;1.30;;
77876;SDS011;67251;50.844;7.978;2023-05-10T12:58:49;4.72;;;1.55;;
77876;SDS011;67251;50.844;7.978;2023-05-10T13:01:14;3.70;;;1.40;;
77876;SDS011;67251;50.844;7.978;2023-05-10T13:03:40;3.53;;;1.40;;
77876;SDS011;67251;50.844;7.978;2023-05-10T13:06:05;3.30;;;1.33;;
77876;SDS011;67251;50.844;7.978;2023-05-10T13:08:31;4.03;;;1.40;;
77876;SDS011;67251;50.844;7.978;2023-05-10T13:10:58;2.97;;;1.15;;
77876;SDS011;67251;50.844;7.978;2023-05-10T13:13:24;3.85;;;1.50;;
77876;SDS011;67251;50.844;7.978;2023-05-10T13:15:50;4.82;;;1.98;;
77876;SDS011;67251;50.844;7.978;2023-05-10T13:18:15;4.00;;;1.58;;
77876;SDS011;67251;50.844;7.978;2023-05-10T13:20:41;5.10;;;2.00;;
77876;SDS011;67251;50.844;7.978;2023-05-10T13:23:08;4.47;;;1.92;;
77876;SDS011;67251;50.844;7.978;2023-05-10T13:25:33;5.60;;;2.20;;
77876;SDS011;67251;50.844;7.978;2023-05-10T13:27:59;5.30;;;2.13;;
77876;SDS011;67251;50.844;7.978;2023-05-10T13:30:24;4.20;;;1.80;;
77876;SDS011;67251;50.844;7.978;2023-05-10T13:32:50;5.60;;;2.03;;
77876;SDS011;67251;50.844;7.978;2023-05-10T13:35:15;4.32;;;2.10;;
77876;SDS011;67251;50.844;7.978;2023-05-10T13:37:41;5.00;;;2.30;;
77876;SDS011;67251;50.844;7.978;2023-05-10T13:40:06;5.40;;;2.10;;
77876;SDS011;67251;50.844;7.978;2023-05-10T13:42:32;5.93;;;2.45;;
77876;SDS011;67251;50.844;7.978;2023-05-10T13:44:58;5.65;;;2.40;;
77876;SDS011;67251;50.844;7.978;2023-05-10T13:47:25;5.20;;;2.42;;
77876;SDS011;67251;50.844;7.978;2023-05-10T13:49:50;6.45;;;2.92;;
77876;SDS011;67251;50.844;7.978;2023-05-10T13:52:16;7.97;;;3.80;;
77876;SDS011;67251;50.844;7.978;2023-05-10T13:54:41;6.30;;;3.00;;
77876;SDS011;67251;50.844;7.978;2023-05-10T13:57:07;7.28;;;3.22;;
77876;SDS011;67251;50.844;7.978;2023-05-10T13:59:32;7.85;;;2.90;;
77876;SDS011;67251;50.844;7.978;2023-05-10T14:01:58;7.15;;;3.03;;
77876;SDS011;67251;50.844;7.978;2023-05-10T14:04:24;6.55;;;2.80;;
77876;SDS011;67251;50.844;7.978;2023-05-10T14:06:49;10.30;;;3.28;;
77876;SDS011;67251;50.844;7.978;2023-05-10T14:09:15;7.18;;;3.00;;
77876;SDS011;67251;50.844;7.978;2023-05-10T14:11:41;8.90;;;3.20;;
77876;SDS011;67251;50.844;7.978;2023-05-10T14:14:08;8.68;;;3.50;;
77876;SDS011;67251;50.844;7.978;2023-05-10T14:16:34;7.68;;;3.05;;
77876;SDS011;67251;50.844;7.978;2023-05-10T14:18:59;9.15;;;3.55;;
77876;SDS011;67251;50.844;7.978;2023-05-10T14:21:25;8.00;;;3.08;;
77876;SDS011;67251;50.844;7.978;2023-05-10T14:23:50;8.60;;;3.40;;
77876;SDS011;67251;50.844;7.978;2023-05-10T14:26:16;7.63;;;3.17;;
77876;SDS011;67251;50.844;7.978;2023-05-10T14:28:41;9.50;;;3.85;;
77876;SDS011;67251;50.844;7.978;2023-05-10T14:31:07;7.30;;;3.28;;
77876;SDS011;67251;50.844;7.978;2023-05-10T14:33:32;9.40;;;3.75;;
77876;SDS011;67251;50.844;7.978;2023-05-10T14:35:57;8.27;;;3.28;;
77876;SDS011;67251;50.844;7.978;2023-05-10T14:38:24;7.55;;;3.35;;
77876;SDS011;67251;50.844;7.978;2023-05-10T14:40:49;9.75;;;3.60;;
77876;SDS011;67251;50.844;7.978;2023-05-10T14:43:14;8.98;;;3.17;;
77876;SDS011;67251;50.844;7.978;2023-05-10T14:45:40;9.43;;;3.63;;
77876;SDS011;67251;50.844;7.978;2023-05-10T14:48:06;7.45;;;2.78;;
77876;SDS011;67251;50.844;7.978;2023-05-10T14:50:36;7.40;;;2.92;;
77876;SDS011;67251;50.844;7.978;2023-05-10T14:53:01;8.07;;;3.28;;
77876;SDS011;67251;50.844;7.978;2023-05-10T14:55:26;9.25;;;3.45;;
77876;SDS011;67251;50.844;7.978;2023-05-10T14:57:52;8.77;;;3.63;;
77876;SDS011;67251;50.844;7.978;2023-05-10T15:00:17;7.63;;;3.28;;
77876;SDS011;67251;50.844;7.978;2023-05-10T15:02:44;9.60;;;3.53;;
77876;SDS011;67251;50.844;7.978;2023-05-10T15:05:09;6.95;;;2.90;;
77876;SDS011;67251;50.844;7.978;2023-05-10T15:07:35;8.63;;;4.00;;
77876;SDS011;67251;50.844;7.978;2023-05-10T15:10:00;7.50;;;3.10;;
77876;SDS011;67251;50.844;7.978;2023-05-10T15:12:26;6.10;;;2.75;;
77876;SDS011;67251;50.844;7.978;2023-05-10T15:14:51;8.18;;;3.13;;
77876;SDS011;67251;50.844;7.978;2023-05-10T15:17:16;8.60;;;3.20;;
77876;SDS011;67251;50.844;7.978;2023-05-10T15:19:42;7.10;;;2.90;;
77876;SDS011;67251;50.844;7.978;2023-05-10T15:22:08;6.30;;;3.05;;
77876;SDS011;67251;50.844;7.978;2023-05-10T15:24:33;5.60;;;2.50;;
77876;SDS011;67251;50.844;7.978;2023-05-10T15:26:59;8.57;;;2.97;;